KMYR/MYR METAR and TAF weather

Enter ICAO airport designator
Station Type Date Time Source
KMYR METAR 2020/07/11 18:56 UTC NOAA

KMYR 111856Z 15010KT 10SM CLR 31/27 A2982 RMK AO2 SLP096 T03110267


Station Type Date Time Source
KMYR Decoded METAR 2020/07/11 18:56 UTC NOAA

Myrtle Beach Air Force Base, SC, United States (KMYR) 33-41N 078-56W 8M
Jul 11, 2020 - 02:56 PM EDT / 2020.07.11 1856 UTC
Wind: from the SSE (150 degrees) at 12 MPH (10 KT):0
Visibility: 10 mile(s):0
Sky conditions: clear
Temperature: 88.0 F (31.1 C)
Heat index: 104.4 F (40.2 C):1
Dew Point: 80.1 F (26.7 C)
Relative Humidity: 77%
Pressure (altimeter): 29.82 in. Hg (1009 hPa)
ob: KMYR 111856Z 15010KT 10SM CLR 31/27 A2982 RMK AO2 SLP096 T03110267
cycle: 19

Station Type Date Time Source
KMYR TAF 2020/07/11 18:24 UTC NOAA

TAF KMYR 111720Z 1118/1218 18008KT P6SM SCT030
FM112000 19012KT P6SM VCTS SCT035CB
TEMPO 1120/1124 3SM TSRA BKN025CB
FM120300 21007KT P6SM FEW050
TEMPO 1209/1212 VRB04KT 5SM BR BKN030
FM121500 19010KT P6SM SCT035

Example: see airport list